sensor_id;sensor_type;location;lat;lon;timestamp;P1;durP1;ratioP1;P2;durP2;ratioP2
17892;SDS011;9072;51.918;4.380;2023-09-07T00:00:15;12.33;;;9.67;;
17892;SDS011;9072;51.918;4.380;2023-09-07T00:02:44;14.40;;;9.67;;
17892;SDS011;9072;51.918;4.380;2023-09-07T00:05:13;10.60;;;9.60;;
17892;SDS011;9072;51.918;4.380;2023-09-07T00:07:40;9.90;;;8.83;;
17892;SDS011;9072;51.918;4.380;2023-09-07T00:10:08;11.40;;;10.10;;
17892;SDS011;9072;51.918;4.380;2023-09-07T00:12:35;11.83;;;9.63;;
17892;SDS011;9072;51.918;4.380;2023-09-07T00:15:04;11.10;;;9.67;;
17892;SDS011;9072;51.918;4.380;2023-09-07T00:17:34;10.27;;;9.23;;
17892;SDS011;9072;51.918;4.380;2023-09-07T00:20:01;10.37;;;9.33;;
17892;SDS011;9072;51.918;4.380;2023-09-07T00:22:34;10.47;;;9.37;;
17892;SDS011;9072;51.918;4.380;2023-09-07T00:25:01;11.17;;;10.07;;
17892;SDS011;9072;51.918;4.380;2023-09-07T00:27:31;10.77;;;9.67;;
17892;SDS011;9072;51.918;4.380;2023-09-07T00:29:59;10.47;;;9.30;;
17892;SDS011;9072;51.918;4.380;2023-09-07T00:32:26;11.00;;;9.37;;
17892;SDS011;9072;51.918;4.380;2023-09-07T00:34:55;10.37;;;9.40;;
17892;SDS011;9072;51.918;4.380;2023-09-07T00:37:22;10.53;;;9.43;;
17892;SDS011;9072;51.918;4.380;2023-09-07T00:39:49;10.83;;;9.10;;
17892;SDS011;9072;51.918;4.380;2023-09-07T00:42:17;10.67;;;9.30;;
17892;SDS011;9072;51.918;4.380;2023-09-07T00:44:45;10.30;;;9.30;;
17892;SDS011;9072;51.918;4.380;2023-09-07T00:47:14;11.40;;;9.00;;
17892;SDS011;9072;51.918;4.380;2023-09-07T00:49:41;11.37;;;9.10;;
17892;SDS011;9072;51.918;4.380;2023-09-07T00:52:10;10.17;;;9.17;;
17892;SDS011;9072;51.918;4.380;2023-09-07T00:54:40;11.57;;;10.37;;
17892;SDS011;9072;51.918;4.380;2023-09-07T00:57:08;10.30;;;8.80;;
17892;SDS011;9072;51.918;4.380;2023-09-07T00:59:36;11.20;;;8.90;;
17892;SDS011;9072;51.918;4.380;2023-09-07T01:02:03;10.70;;;9.47;;
17892;SDS011;9072;51.918;4.380;2023-09-07T01:04:31;10.33;;;9.23;;
17892;SDS011;9072;51.918;4.380;2023-09-07T01:07:00;11.13;;;9.90;;
17892;SDS011;9072;51.918;4.380;2023-09-07T01:09:35;11.57;;;10.37;;
17892;SDS011;9072;51.918;4.380;2023-09-07T01:12:13;11.90;;;10.40;;
17892;SDS011;9072;51.918;4.380;2023-09-07T01:14:40;11.33;;;10.00;;
17892;SDS011;9072;51.918;4.380;2023-09-07T01:17:09;11.20;;;9.90;;
17892;SDS011;9072;51.918;4.380;2023-09-07T01:19:36;14.80;;;10.30;;
17892;SDS011;9072;51.918;4.380;2023-09-07T01:22:06;12.83;;;11.47;;
17892;SDS011;9072;51.918;4.380;2023-09-07T01:24:33;12.27;;;11.07;;
17892;SDS011;9072;51.918;4.380;2023-09-07T01:27:07;12.10;;;10.80;;
17892;SDS011;9072;51.918;4.380;2023-09-07T01:29:34;11.70;;;10.60;;
17892;SDS011;9072;51.918;4.380;2023-09-07T01:32:02;12.30;;;11.10;;
17892;SDS011;9072;51.918;4.380;2023-09-07T01:34:30;12.50;;;11.23;;
17892;SDS011;9072;51.918;4.380;2023-09-07T01:36:57;12.30;;;10.70;;
17892;SDS011;9072;51.918;4.380;2023-09-07T01:39:26;13.33;;;11.93;;
17892;SDS011;9072;51.918;4.380;2023-09-07T01:41:53;13.17;;;11.77;;
17892;SDS011;9072;51.918;4.380;2023-09-07T01:44:20;13.17;;;11.40;;
17892;SDS011;9072;51.918;4.380;2023-09-07T01:46:47;13.50;;;12.20;;
17892;SDS011;9072;51.918;4.380;2023-09-07T01:49:14;14.27;;;12.63;;
17892;SDS011;9072;51.918;4.380;2023-09-07T01:51:41;13.13;;;11.73;;
17892;SDS011;9072;51.918;4.380;2023-09-07T01:54:09;13.93;;;12.63;;
17892;SDS011;9072;51.918;4.380;2023-09-07T01:56:38;13.63;;;12.17;;
17892;SDS011;9072;51.918;4.380;2023-09-07T01:59:06;12.73;;;11.50;;
17892;SDS011;9072;51.918;4.380;2023-09-07T02:01:33;13.80;;;12.50;;
17892;SDS011;9072;51.918;4.380;2023-09-07T02:04:04;14.83;;;13.23;;
17892;SDS011;9072;51.918;4.380;2023-09-07T02:06:33;13.97;;;12.67;;
17892;SDS011;9072;51.918;4.380;2023-09-07T02:09:01;16.70;;;13.30;;
17892;SDS011;9072;51.918;4.380;2023-09-07T02:11:29;13.23;;;11.97;;
17892;SDS011;9072;51.918;4.380;2023-09-07T02:13:58;13.70;;;12.40;;
17892;SDS011;9072;51.918;4.380;2023-09-07T02:16:27;16.70;;;12.97;;
17892;SDS011;9072;51.918;4.380;2023-09-07T02:19:00;14.30;;;12.40;;
17892;SDS011;9072;51.918;4.380;2023-09-07T02:21:29;14.97;;;13.23;;
17892;SDS011;9072;51.918;4.380;2023-09-07T02:23:57;16.07;;;13.70;;
17892;SDS011;9072;51.918;4.380;2023-09-07T02:26:24;14.43;;;13.03;;
17892;SDS011;9072;51.918;4.380;2023-09-07T02:28:51;14.37;;;12.93;;
17892;SDS011;9072;51.918;4.380;2023-09-07T02:31:20;15.73;;;12.70;;
17892;SDS011;9072;51.918;4.380;2023-09-07T02:33:47;16.13;;;13.87;;
17892;SDS011;9072;51.918;4.380;2023-09-07T02:36:14;15.47;;;13.97;;
17892;SDS011;9072;51.918;4.380;2023-09-07T02:38:41;13.77;;;12.47;;
17892;SDS011;9072;51.918;4.380;2023-09-07T02:41:09;13.90;;;12.50;;
17892;SDS011;9072;51.918;4.380;2023-09-07T02:43:36;14.40;;;12.90;;
17892;SDS011;9072;51.918;4.380;2023-09-07T02:46:03;14.47;;;13.07;;
17892;SDS011;9072;51.918;4.380;2023-09-07T02:48:32;14.43;;;13.10;;
17892;SDS011;9072;51.918;4.380;2023-09-07T02:50:59;14.90;;;13.30;;
17892;SDS011;9072;51.918;4.380;2023-09-07T02:53:26;16.77;;;14.03;;
17892;SDS011;9072;51.918;4.380;2023-09-07T02:55:55;15.23;;;13.30;;
17892;SDS011;9072;51.918;4.380;2023-09-07T02:58:22;14.60;;;13.17;;
17892;SDS011;9072;51.918;4.380;2023-09-07T03:00:50;14.77;;;13.27;;
17892;SDS011;9072;51.918;4.380;2023-09-07T03:03:20;15.87;;;14.27;;
17892;SDS011;9072;51.918;4.380;2023-09-07T03:05:49;14.07;;;12.67;;
17892;SDS011;9072;51.918;4.380;2023-09-07T03:08:16;15.20;;;13.10;;
17892;SDS011;9072;51.918;4.380;2023-09-07T03:10:43;16.43;;;14.03;;
17892;SDS011;9072;51.918;4.380;2023-09-07T03:13:10;14.90;;;13.40;;
17892;SDS011;9072;51.918;4.380;2023-09-07T03:15:38;14.30;;;12.80;;
17892;SDS011;9072;51.918;4.380;2023-09-07T03:18:05;13.50;;;12.23;;
17892;SDS011;9072;51.918;4.380;2023-09-07T03:20:32;13.90;;;12.50;;
17892;SDS011;9072;51.918;4.380;2023-09-07T03:23:01;15.27;;;13.77;;
17892;SDS011;9072;51.918;4.380;2023-09-07T03:25:29;16.23;;;12.73;;
17892;SDS011;9072;51.918;4.380;2023-09-07T03:27:56;15.30;;;13.80;;
17892;SDS011;9072;51.918;4.380;2023-09-07T03:30:24;15.13;;;13.57;;
17892;SDS011;9072;51.918;4.380;2023-09-07T03:32:51;14.20;;;12.80;;
17892;SDS011;9072;51.918;4.380;2023-09-07T03:35:18;14.37;;;12.90;;
17892;SDS011;9072;51.918;4.380;2023-09-07T03:37:46;14.93;;;13.40;;
17892;SDS011;9072;51.918;4.380;2023-09-07T03:40:15;15.57;;;13.97;;
17892;SDS011;9072;51.918;4.380;2023-09-07T03:42:42;14.53;;;13.03;;
17892;SDS011;9072;51.918;4.380;2023-09-07T03:45:11;14.27;;;12.80;;
17892;SDS011;9072;51.918;4.380;2023-09-07T03:47:38;14.90;;;13.50;;
17892;SDS011;9072;51.918;4.380;2023-09-07T03:50:06;14.17;;;12.77;;
17892;SDS011;9072;51.918;4.380;2023-09-07T03:52:33;13.47;;;12.20;;
17892;SDS011;9072;51.918;4.380;2023-09-07T03:55:01;13.80;;;12.50;;
17892;SDS011;9072;51.918;4.380;2023-09-07T03:57:29;14.13;;;12.73;;
17892;SDS011;9072;51.918;4.380;2023-09-07T03:59:59;14.00;;;12.57;;
17892;SDS011;9072;51.918;4.380;2023-09-07T04:02:30;15.10;;;13.60;;
17892;SDS011;9072;51.918;4.380;2023-09-07T04:04:57;14.43;;;13.03;;
17892;SDS011;9072;51.918;4.380;2023-09-07T04:07:26;15.37;;;13.73;;
17892;SDS011;9072;51.918;4.380;2023-09-07T04:09:54;15.27;;;12.83;;
17892;SDS011;9072;51.918;4.380;2023-09-07T04:12:24;13.93;;;12.63;;
17892;SDS011;9072;51.918;4.380;2023-09-07T04:14:53;13.03;;;11.70;;
17892;SDS011;9072;51.918;4.380;2023-09-07T04:17:20;16.07;;;14.53;;
17892;SDS011;9072;51.918;4.380;2023-09-07T04:19:48;15.97;;;13.77;;
17892;SDS011;9072;51.918;4.380;2023-09-07T04:22:15;16.47;;;14.87;;
17892;SDS011;9072;51.918;4.380;2023-09-07T04:24:42;16.10;;;14.37;;
17892;SDS011;9072;51.918;4.380;2023-09-07T04:27:09;16.87;;;15.17;;
17892;SDS011;9072;51.918;4.380;2023-09-07T04:29:36;17.63;;;15.90;;
17892;SDS011;9072;51.918;4.380;2023-09-07T04:32:05;16.27;;;14.67;;
17892;SDS011;9072;51.918;4.380;2023-09-07T04:34:34;18.10;;;16.20;;
17892;SDS011;9072;51.918;4.380;2023-09-07T04:37:01;16.90;;;15.03;;
17892;SDS011;9072;51.918;4.380;2023-09-07T04:39:28;18.87;;;16.03;;
17892;SDS011;9072;51.918;4.380;2023-09-07T04:41:55;17.50;;;15.90;;
17892;SDS011;9072;51.918;4.380;2023-09-07T04:44:22;18.23;;;16.23;;
17892;SDS011;9072;51.918;4.380;2023-09-07T04:46:49;19.33;;;16.07;;
17892;SDS011;9072;51.918;4.380;2023-09-07T04:49:21;16.70;;;15.17;;
17892;SDS011;9072;51.918;4.380;2023-09-07T04:51:49;17.33;;;15.60;;
17892;SDS011;9072;51.918;4.380;2023-09-07T04:54:18;16.93;;;15.33;;
17892;SDS011;9072;51.918;4.380;2023-09-07T04:56:46;16.23;;;14.67;;
17892;SDS011;9072;51.918;4.380;2023-09-07T04:59:16;19.73;;;16.23;;
17892;SDS011;9072;51.918;4.380;2023-09-07T05:01:43;17.30;;;15.47;;
17892;SDS011;9072;51.918;4.380;2023-09-07T05:04:10;16.40;;;14.80;;
17892;SDS011;9072;51.918;4.380;2023-09-07T05:06:39;17.57;;;15.87;;
17892;SDS011;9072;51.918;4.380;2023-09-07T05:09:06;16.27;;;14.77;;
17892;SDS011;9072;51.918;4.380;2023-09-07T05:11:34;17.40;;;15.60;;
17892;SDS011;9072;51.918;4.380;2023-09-07T05:14:01;17.87;;;15.87;;
17892;SDS011;9072;51.918;4.380;2023-09-07T05:16:28;18.87;;;15.90;;
17892;SDS011;9072;51.918;4.380;2023-09-07T05:18:55;18.67;;;16.73;;
17892;SDS011;9072;51.918;4.380;2023-09-07T05:21:22;18.67;;;16.77;;
17892;SDS011;9072;51.918;4.380;2023-09-07T05:23:51;16.63;;;15.00;;
17892;SDS011;9072;51.918;4.380;2023-09-07T05:26:20;16.10;;;14.50;;
17892;SDS011;9072;51.918;4.380;2023-09-07T05:28:49;17.43;;;15.70;;
17892;SDS011;9072;51.918;4.380;2023-09-07T05:31:16;17.03;;;15.43;;
17892;SDS011;9072;51.918;4.380;2023-09-07T05:33:44;16.97;;;15.27;;
17892;SDS011;9072;51.918;4.380;2023-09-07T05:36:11;15.67;;;14.13;;
17892;SDS011;9072;51.918;4.380;2023-09-07T05:38:38;16.33;;;14.63;;
17892;SDS011;9072;51.918;4.380;2023-09-07T05:41:07;16.10;;;14.40;;
17892;SDS011;9072;51.918;4.380;2023-09-07T05:43:34;16.10;;;14.60;;
17892;SDS011;9072;51.918;4.380;2023-09-07T05:46:05;16.77;;;15.13;;
17892;SDS011;9072;51.918;4.380;2023-09-07T05:48:32;16.73;;;15.23;;
17892;SDS011;9072;51.918;4.380;2023-09-07T05:51:01;17.90;;;15.13;;
17892;SDS011;9072;51.918;4.380;2023-09-07T05:53:28;16.40;;;14.50;;
17892;SDS011;9072;51.918;4.380;2023-09-07T05:55:58;15.83;;;14.33;;
17892;SDS011;9072;51.918;4.380;2023-09-07T05:58:27;16.17;;;14.57;;
17892;SDS011;9072;51.918;4.380;2023-09-07T06:00:55;15.90;;;14.13;;
17892;SDS011;9072;51.918;4.380;2023-09-07T06:03:22;15.23;;;13.73;;
17892;SDS011;9072;51.918;4.380;2023-09-07T06:05:49;15.00;;;13.50;;
17892;SDS011;9072;51.918;4.380;2023-09-07T06:08:16;16.43;;;13.77;;
17892;SDS011;9072;51.918;4.380;2023-09-07T06:10:47;16.83;;;15.17;;
17892;SDS011;9072;51.918;4.380;2023-09-07T06:13:16;16.43;;;14.73;;
17892;SDS011;9072;51.918;4.380;2023-09-07T06:15:47;18.13;;;16.23;;
17892;SDS011;9072;51.918;4.380;2023-09-07T06:18:14;18.50;;;16.67;;
17892;SDS011;9072;51.918;4.380;2023-09-07T06:20:42;17.90;;;16.20;;
17892;SDS011;9072;51.918;4.380;2023-09-07T06:23:09;17.47;;;15.73;;
17892;SDS011;9072;51.918;4.380;2023-09-07T06:25:36;17.00;;;15.40;;
17892;SDS011;9072;51.918;4.380;2023-09-07T06:28:04;17.70;;;16.00;;
17892;SDS011;9072;51.918;4.380;2023-09-07T06:30:32;20.37;;;15.33;;
17892;SDS011;9072;51.918;4.380;2023-09-07T06:33:01;19.33;;;16.87;;
17892;SDS011;9072;51.918;4.380;2023-09-07T06:35:28;17.83;;;16.07;;
17892;SDS011;9072;51.918;4.380;2023-09-07T06:37:55;18.47;;;16.47;;
17892;SDS011;9072;51.918;4.380;2023-09-07T06:40:24;17.80;;;15.83;;
17892;SDS011;9072;51.918;4.380;2023-09-07T06:42:52;18.60;;;16.67;;
17892;SDS011;9072;51.918;4.380;2023-09-07T06:45:22;18.43;;;16.53;;
17892;SDS011;9072;51.918;4.380;2023-09-07T06:47:50;18.53;;;16.43;;
17892;SDS011;9072;51.918;4.380;2023-09-07T06:50:19;19.60;;;17.33;;
17892;SDS011;9072;51.918;4.380;2023-09-07T06:52:46;20.00;;;17.83;;
17892;SDS011;9072;51.918;4.380;2023-09-07T06:55:13;20.20;;;18.10;;
17892;SDS011;9072;51.918;4.380;2023-09-07T06:57:41;23.17;;;17.07;;
17892;SDS011;9072;51.918;4.380;2023-09-07T07:00:08;19.60;;;17.50;;
17892;SDS011;9072;51.918;4.380;2023-09-07T07:02:38;18.80;;;16.83;;
17892;SDS011;9072;51.918;4.380;2023-09-07T07:05:06;19.53;;;17.67;;
17892;SDS011;9072;51.918;4.380;2023-09-07T07:07:34;19.73;;;17.80;;
17892;SDS011;9072;51.918;4.380;2023-09-07T07:10:02;19.00;;;17.20;;
17892;SDS011;9072;51.918;4.380;2023-09-07T07:12:32;18.80;;;16.90;;
17892;SDS011;9072;51.918;4.380;2023-09-07T07:14:59;19.53;;;17.53;;
17892;SDS011;9072;51.918;4.380;2023-09-07T07:17:29;22.33;;;19.03;;
17892;SDS011;9072;51.918;4.380;2023-09-07T07:19:57;20.40;;;18.20;;
17892;SDS011;9072;51.918;4.380;2023-09-07T07:22:28;20.73;;;18.33;;
17892;SDS011;9072;51.918;4.380;2023-09-07T07:24:56;19.70;;;17.70;;
17892;SDS011;9072;51.918;4.380;2023-09-07T07:27:26;28.07;;;17.30;;
17892;SDS011;9072;51.918;4.380;2023-09-07T07:29:55;21.73;;;16.43;;
17892;SDS011;9072;51.918;4.380;2023-09-07T07:32:24;20.90;;;18.70;;
17892;SDS011;9072;51.918;4.380;2023-09-07T07:34:56;17.90;;;16.10;;
17892;SDS011;9072;51.918;4.380;2023-09-07T07:37:26;23.67;;;18.40;;
17892;SDS011;9072;51.918;4.380;2023-09-07T07:39:53;17.67;;;15.90;;
17892;SDS011;9072;51.918;4.380;2023-09-07T07:42:23;20.73;;;17.70;;
17892;SDS011;9072;51.918;4.380;2023-09-07T07:44:53;19.13;;;17.33;;
17892;SDS011;9072;51.918;4.380;2023-09-07T07:47:20;17.77;;;15.87;;
17892;SDS011;9072;51.918;4.380;2023-09-07T07:49:47;17.67;;;15.87;;
17892;SDS011;9072;51.918;4.380;2023-09-07T07:52:14;17.87;;;16.17;;
17892;SDS011;9072;51.918;4.380;2023-09-07T07:54:42;18.33;;;16.40;;
17892;SDS011;9072;51.918;4.380;2023-09-07T07:57:09;17.67;;;15.87;;
17892;SDS011;9072;51.918;4.380;2023-09-07T07:59:37;19.27;;;17.27;;
17892;SDS011;9072;51.918;4.380;2023-09-07T08:02:04;18.73;;;16.83;;
17892;SDS011;9072;51.918;4.380;2023-09-07T08:04:32;18.00;;;15.33;;
17892;SDS011;9072;51.918;4.380;2023-09-07T08:07:00;19.73;;;16.53;;
17892;SDS011;9072;51.918;4.380;2023-09-07T08:09:29;17.47;;;15.60;;
17892;SDS011;9072;51.918;4.380;2023-09-07T08:11:57;17.43;;;14.13;;
17892;SDS011;9072;51.918;4.380;2023-09-07T08:14:27;17.67;;;15.87;;
17892;SDS011;9072;51.918;4.380;2023-09-07T08:16:58;18.13;;;15.53;;
17892;SDS011;9072;51.918;4.380;2023-09-07T08:19:26;17.47;;;15.67;;
17892;SDS011;9072;51.918;4.380;2023-09-07T08:21:54;19.10;;;15.63;;
17892;SDS011;9072;51.918;4.380;2023-09-07T08:24:21;15.00;;;13.43;;
17892;SDS011;9072;51.918;4.380;2023-09-07T08:26:48;15.15;;;13.63;;
17892;SDS011;9072;51.918;4.380;2023-09-07T08:29:19;16.50;;;12.63;;
17892;SDS011;9072;51.918;4.380;2023-09-07T08:31:46;13.40;;;12.15;;
17892;SDS011;9072;51.918;4.380;2023-09-07T08:34:15;13.48;;;10.50;;
17892;SDS011;9072;51.918;4.380;2023-09-07T08:36:44;10.98;;;10.02;;
17892;SDS011;9072;51.918;4.380;2023-09-07T08:39:12;11.43;;;10.30;;
17892;SDS011;9072;51.918;4.380;2023-09-07T08:41:39;12.70;;;11.23;;
17892;SDS011;9072;51.918;4.380;2023-09-07T08:44:09;11.55;;;9.48;;
17892;SDS011;9072;51.918;4.380;2023-09-07T08:46:37;14.07;;;10.55;;
17892;SDS011;9072;51.918;4.380;2023-09-07T08:49:06;17.33;;;10.15;;
17892;SDS011;9072;51.918;4.380;2023-09-07T08:51:35;11.10;;;8.90;;
17892;SDS011;9072;51.918;4.380;2023-09-07T08:54:07;10.23;;;9.05;;
17892;SDS011;9072;51.918;4.380;2023-09-07T08:56:35;11.30;;;10.30;;
17892;SDS011;9072;51.918;4.380;2023-09-07T08:59:04;11.77;;;10.02;;
17892;SDS011;9072;51.918;4.380;2023-09-07T09:01:31;11.82;;;9.65;;
17892;SDS011;9072;51.918;4.380;2023-09-07T09:03:58;10.57;;;9.52;;
17892;SDS011;9072;51.918;4.380;2023-09-07T09:06:26;10.82;;;9.77;;
17892;SDS011;9072;51.918;4.380;2023-09-07T09:08:57;12.60;;;9.43;;
17892;SDS011;9072;51.918;4.380;2023-09-07T09:11:24;14.23;;;10.82;;
17892;SDS011;9072;51.918;4.380;2023-09-07T09:13:53;10.05;;;8.98;;
17892;SDS011;9072;51.918;4.380;2023-09-07T09:16:20;10.80;;;9.35;;
17892;SDS011;9072;51.918;4.380;2023-09-07T09:18:50;10.15;;;9.25;;
17892;SDS011;9072;51.918;4.380;2023-09-07T09:21:22;12.00;;;10.88;;
17892;SDS011;9072;51.918;4.380;2023-09-07T09:23:54;11.23;;;8.90;;
17892;SDS011;9072;51.918;4.380;2023-09-07T09:26:24;11.80;;;10.60;;
17892;SDS011;9072;51.918;4.380;2023-09-07T09:28:51;11.15;;;9.80;;
17892;SDS011;9072;51.918;4.380;2023-09-07T09:31:21;11.63;;;10.40;;
17892;SDS011;9072;51.918;4.380;2023-09-07T09:33:52;15.70;;;9.57;;
17892;SDS011;9072;51.918;4.380;2023-09-07T09:36:20;13.77;;;10.85;;
17892;SDS011;9072;51.918;4.380;2023-09-07T09:38:47;12.60;;;8.75;;
17892;SDS011;9072;51.918;4.380;2023-09-07T09:41:18;13.90;;;10.18;;
17892;SDS011;9072;51.918;4.380;2023-09-07T09:43:47;11.68;;;10.40;;
17892;SDS011;9072;51.918;4.380;2023-09-07T09:46:18;11.18;;;10.13;;
17892;SDS011;9072;51.918;4.380;2023-09-07T09:48:45;11.05;;;9.63;;
17892;SDS011;9072;51.918;4.380;2023-09-07T09:51:14;11.18;;;9.98;;
17892;SDS011;9072;51.918;4.380;2023-09-07T09:53:41;11.07;;;10.02;;
17892;SDS011;9072;51.918;4.380;2023-09-07T09:56:09;12.07;;;10.68;;
17892;SDS011;9072;51.918;4.380;2023-09-07T09:58:36;11.77;;;9.88;;
17892;SDS011;9072;51.918;4.380;2023-09-07T10:01:05;15.95;;;9.75;;
17892;SDS011;9072;51.918;4.380;2023-09-07T10:03:40;10.40;;;9.40;;
17892;SDS011;9072;51.918;4.380;2023-09-07T10:06:17;12.23;;;9.93;;
17892;SDS011;9072;51.918;4.380;2023-09-07T10:08:52;11.23;;;9.13;;
17892;SDS011;9072;51.918;4.380;2023-09-07T10:11:26;10.93;;;9.88;;
17892;SDS011;9072;51.918;4.380;2023-09-07T10:13:58;12.35;;;10.75;;
17892;SDS011;9072;51.918;4.380;2023-09-07T10:16:27;9.70;;;8.70;;
17892;SDS011;9072;51.918;4.380;2023-09-07T10:18:54;12.27;;;9.23;;
17892;SDS011;9072;51.918;4.380;2023-09-07T10:21:24;11.43;;;9.93;;
17892;SDS011;9072;51.918;4.380;2023-09-07T10:23:54;10.68;;;9.15;;
17892;SDS011;9072;51.918;4.380;2023-09-07T10:26:21;10.32;;;9.40;;
17892;SDS011;9072;51.918;4.380;2023-09-07T10:28:58;12.00;;;9.68;;
17892;SDS011;9072;51.918;4.380;2023-09-07T10:31:30;10.65;;;9.57;;
17892;SDS011;9072;51.918;4.380;2023-09-07T10:34:07;13.05;;;9.18;;
17892;SDS011;9072;51.918;4.380;2023-09-07T10:36:35;11.80;;;9.00;;
17892;SDS011;9072;51.918;4.380;2023-09-07T10:39:03;10.30;;;8.13;;
17892;SDS011;9072;51.918;4.380;2023-09-07T10:41:40;9.80;;;7.95;;
17892;SDS011;9072;51.918;4.380;2023-09-07T10:44:08;9.30;;;8.40;;
17892;SDS011;9072;51.918;4.380;2023-09-07T10:46:38;11.73;;;8.00;;
17892;SDS011;9072;51.918;4.380;2023-09-07T10:49:06;10.35;;;7.82;;
17892;SDS011;9072;51.918;4.380;2023-09-07T10:51:45;10.20;;;8.50;;
17892;SDS011;9072;51.918;4.380;2023-09-07T10:54:13;11.02;;;7.95;;
17892;SDS011;9072;51.918;4.380;2023-09-07T10:56:46;9.40;;;8.40;;
17892;SDS011;9072;51.918;4.380;2023-09-07T10:59:13;10.93;;;7.18;;
17892;SDS011;9072;51.918;4.380;2023-09-07T11:01:43;11.07;;;7.15;;
17892;SDS011;9072;51.918;4.380;2023-09-07T11:04:10;11.05;;;7.20;;
17892;SDS011;9072;51.918;4.380;2023-09-07T11:06:38;12.23;;;7.05;;
17892;SDS011;9072;51.918;4.380;2023-09-07T11:09:08;8.15;;;6.72;;
17892;SDS011;9072;51.918;4.380;2023-09-07T11:11:35;7.60;;;6.22;;
17892;SDS011;9072;51.918;4.380;2023-09-07T11:14:03;7.20;;;6.00;;
17892;SDS011;9072;51.918;4.380;2023-09-07T11:16:31;10.30;;;6.45;;
17892;SDS011;9072;51.918;4.380;2023-09-07T11:19:03;7.68;;;6.40;;
17892;SDS011;9072;51.918;4.380;2023-09-07T11:21:31;7.45;;;6.30;;
17892;SDS011;9072;51.918;4.380;2023-09-07T11:23:59;9.82;;;6.50;;
17892;SDS011;9072;51.918;4.380;2023-09-07T11:26:29;8.52;;;6.40;;
17892;SDS011;9072;51.918;4.380;2023-09-07T11:29:08;9.90;;;6.72;;
17892;SDS011;9072;51.918;4.380;2023-09-07T11:31:37;8.82;;;6.97;;
17892;SDS011;9072;51.918;4.380;2023-09-07T11:34:09;7.47;;;6.20;;
17892;SDS011;9072;51.918;4.380;2023-09-07T11:36:36;6.93;;;6.22;;
17892;SDS011;9072;51.918;4.380;2023-09-07T11:39:05;6.32;;;5.63;;
17892;SDS011;9072;51.918;4.380;2023-09-07T11:41:37;7.38;;;5.40;;
17892;SDS011;9072;51.918;4.380;2023-09-07T11:44:06;7.50;;;5.55;;
17892;SDS011;9072;51.918;4.380;2023-09-07T11:46:33;6.43;;;5.70;;
17892;SDS011;9072;51.918;4.380;2023-09-07T11:49:01;9.85;;;5.40;;
17892;SDS011;9072;51.918;4.380;2023-09-07T11:51:31;6.07;;;5.38;;
17892;SDS011;9072;51.918;4.380;2023-09-07T11:53:58;6.57;;;5.15;;
17892;SDS011;9072;51.918;4.380;2023-09-07T11:56:26;9.40;;;5.03;;
17892;SDS011;9072;51.918;4.380;2023-09-07T11:58:53;6.05;;;5.03;;
17892;SDS011;9072;51.918;4.380;2023-09-07T12:01:20;6.30;;;5.13;;
17892;SDS011;9072;51.918;4.380;2023-09-07T12:03:48;6.60;;;4.75;;
17892;SDS011;9072;51.918;4.380;2023-09-07T12:06:15;7.63;;;4.68;;
17892;SDS011;9072;51.918;4.380;2023-09-07T12:08:57;10.05;;;4.80;;
17892;SDS011;9072;51.918;4.380;2023-09-07T12:11:29;5.93;;;4.60;;
17892;SDS011;9072;51.918;4.380;2023-09-07T12:13:56;5.40;;;4.88;;
17892;SDS011;9072;51.918;4.380;2023-09-07T12:16:24;7.10;;;4.85;;
17892;SDS011;9072;51.918;4.380;2023-09-07T12:18:52;6.53;;;4.43;;
17892;SDS011;9072;51.918;4.380;2023-09-07T12:21:22;6.90;;;4.38;;
17892;SDS011;9072;51.918;4.380;2023-09-07T12:23:54;5.50;;;4.40;;
17892;SDS011;9072;51.918;4.380;2023-09-07T12:26:23;6.03;;;4.60;;
17892;SDS011;9072;51.918;4.380;2023-09-07T12:28:50;8.80;;;4.68;;
17892;SDS011;9072;51.918;4.380;2023-09-07T12:31:17;5.95;;;4.78;;
17892;SDS011;9072;51.918;4.380;2023-09-07T12:33:48;5.38;;;4.35;;
17892;SDS011;9072;51.918;4.380;2023-09-07T12:36:18;7.47;;;4.95;;
17892;SDS011;9072;51.918;4.380;2023-09-07T12:38:46;8.82;;;4.50;;
17892;SDS011;9072;51.918;4.380;2023-09-07T12:41:16;7.22;;;4.35;;
17892;SDS011;9072;51.918;4.380;2023-09-07T12:43:44;5.25;;;4.32;;
17892;SDS011;9072;51.918;4.380;2023-09-07T12:46:14;4.80;;;4.35;;
17892;SDS011;9072;51.918;4.380;2023-09-07T12:48:41;7.05;;;4.20;;
17892;SDS011;9072;51.918;4.380;2023-09-07T12:51:11;5.28;;;3.95;;
17892;SDS011;9072;51.918;4.380;2023-09-07T12:53:52;6.47;;;3.58;;
17892;SDS011;9072;51.918;4.380;2023-09-07T12:56:21;6.60;;;3.55;;
17892;SDS011;9072;51.918;4.380;2023-09-07T12:58:50;3.58;;;3.25;;
17892;SDS011;9072;51.918;4.380;2023-09-07T13:01:18;4.22;;;3.35;;
17892;SDS011;9072;51.918;4.380;2023-09-07T13:03:47;7.68;;;3.80;;
17892;SDS011;9072;51.918;4.380;2023-09-07T13:06:14;6.45;;;4.07;;
17892;SDS011;9072;51.918;4.380;2023-09-07T13:08:42;5.65;;;3.75;;
17892;SDS011;9072;51.918;4.380;2023-09-07T13:11:10;4.82;;;3.70;;
17892;SDS011;9072;51.918;4.380;2023-09-07T13:13:38;3.63;;;3.30;;
17892;SDS011;9072;51.918;4.380;2023-09-07T13:16:07;6.10;;;3.53;;
17892;SDS011;9072;51.918;4.380;2023-09-07T13:18:34;4.93;;;3.72;;
17892;SDS011;9072;51.918;4.380;2023-09-07T13:21:02;6.93;;;3.78;;
17892;SDS011;9072;51.918;4.380;2023-09-07T13:23:29;4.93;;;3.30;;
17892;SDS011;9072;51.918;4.380;2023-09-07T13:25:57;5.15;;;3.40;;
17892;SDS011;9072;51.918;4.380;2023-09-07T13:28:25;4.70;;;3.63;;
17892;SDS011;9072;51.918;4.380;2023-09-07T13:30:56;3.63;;;3.30;;
17892;SDS011;9072;51.918;4.380;2023-09-07T13:33:23;5.43;;;3.67;;
17892;SDS011;9072;51.918;4.380;2023-09-07T13:35:51;6.07;;;4.40;;
17892;SDS011;9072;51.918;4.380;2023-09-07T13:38:18;7.32;;;4.35;;
17892;SDS011;9072;51.918;4.380;2023-09-07T13:40:45;6.80;;;3.90;;
17892;SDS011;9072;51.918;4.380;2023-09-07T13:43:12;4.55;;;3.47;;
17892;SDS011;9072;51.918;4.380;2023-09-07T13:45:40;3.97;;;3.60;;
17892;SDS011;9072;51.918;4.380;2023-09-07T13:48:10;5.75;;;3.70;;
17892;SDS011;9072;51.918;4.380;2023-09-07T13:50:38;7.15;;;3.70;;
17892;SDS011;9072;51.918;4.380;2023-09-07T13:53:06;5.72;;;3.33;;
17892;SDS011;9072;51.918;4.380;2023-09-07T13:55:36;4.43;;;3.50;;
17892;SDS011;9072;51.918;4.380;2023-09-07T13:58:10;4.65;;;3.63;;
17892;SDS011;9072;51.918;4.380;2023-09-07T14:00:37;6.65;;;3.75;;
17892;SDS011;9072;51.918;4.380;2023-09-07T14:03:07;4.70;;;3.97;;
17892;SDS011;9072;51.918;4.380;2023-09-07T14:05:37;6.10;;;3.83;;
17892;SDS011;9072;51.918;4.380;2023-09-07T14:08:08;5.25;;;3.65;;
17892;SDS011;9072;51.918;4.380;2023-09-07T14:10:35;3.88;;;3.58;;
17892;SDS011;9072;51.918;4.380;2023-09-07T14:13:02;7.13;;;3.80;;
17892;SDS011;9072;51.918;4.380;2023-09-07T14:15:30;5.45;;;3.80;;
17892;SDS011;9072;51.918;4.380;2023-09-07T14:17:58;4.72;;;3.72;;
17892;SDS011;9072;51.918;4.380;2023-09-07T14:20:28;3.78;;;3.35;;
17892;SDS011;9072;51.918;4.380;2023-09-07T14:22:56;4.55;;;3.70;;
17892;SDS011;9072;51.918;4.380;2023-09-07T14:25:26;4.88;;;3.60;;
17892;SDS011;9072;51.918;4.380;2023-09-07T14:27:55;6.05;;;3.72;;
17892;SDS011;9072;51.918;4.380;2023-09-07T14:30:23;5.57;;;3.60;;
17892;SDS011;9072;51.918;4.380;2023-09-07T14:32:50;3.97;;;3.58;;
17892;SDS011;9072;51.918;4.380;2023-09-07T14:35:26;4.50;;;3.83;;
17892;SDS011;9072;51.918;4.380;2023-09-07T14:37:58;4.35;;;3.45;;
17892;SDS011;9072;51.918;4.380;2023-09-07T14:40:28;5.43;;;3.65;;
17892;SDS011;9072;51.918;4.380;2023-09-07T14:42:58;4.13;;;3.70;;
17892;SDS011;9072;51.918;4.380;2023-09-07T14:45:26;3.95;;;3.35;;
17892;SDS011;9072;51.918;4.380;2023-09-07T14:47:54;4.03;;;3.30;;
17892;SDS011;9072;51.918;4.380;2023-09-07T14:50:23;5.47;;;4.18;;